Forside
METAR-TAF:

METAR-TAF

Lufthavne :

Gary, Indiana, USA

Breddekreds: 41-37N, længdekreds: 087-25W, højde: 180 m

Aktuelle vejr

Denne rapport blev lavet for 33 minutter siden, kl. 17:45 UTC
Vind 7 kt fra nordøst
Temperatur 25°C
Fugtighed 50%
Tryk 1020 hPa
Sigt: 16.1 km
Nogle få skyer i en højde af 3000 ft

METAR: KGYY 031745Z 04007KT 10SM FEW030 25/14 A3012

Tid: 13:18 (18:18 UTC)

Vejrudsigter

Denne rapport blev lavet for 48 minutter siden, kl. 17:30 UTC
Foreløbig gælder fra 03 på 18 UTC til 04 på 18 UTC
Vind 8 kt fra østnordøst
Sigt: 10 km
Spredte skyer i en højde af 6000 ft
Fra 04 på 0300 UTC
Vind 3 kt fra varierende retninger
Sigt: 10 km
Nogle få skyer i en højde af 6000 ft

TAF: KGYY 031730Z 0318/0418 06008KT P6SM SCT060 FM040300 VRB03KT P6SM FEW060

Vejrobservationer og prognoser fra mere end 4000 lufthavne (METAR og TAF).

De gule og røde prikker repræsenterer de meteorologiske stationer.

Flyt musen over at se navnet på stationen.

Så klik over at se vejr observationer og prognoser.

At skifte det kort: Klik på de grønne knapper med et sort kors for at zoome ind; på den grønne knap med en bindestreg for at zoome ud; eller på de grønne pile for tilstødende kort.


METAR-TAF: